Time;durP1;ratioP1;P1;durP2;ratioP2;P2;SDS_P1;SDS_P2;PMS_P1;PMS_P2;Temp;Humidity;BMP_temperature;BMP_pressure;BME280_temperature;BME280_humidity;BME280_pressure;Samples;Min_cycle;Max_cycle;Signal;HPM_P1;HPM_P2
2022/05/09 00:00:31;;;;;;;1999.90;999.90;;;14.90;99.90;;;;;;4958391;28;20015;-93
2022/05/09 00:02:57;;;;;;;1999.90;999.90;;;14.90;99.90;;;;;;4957688;28;20032;-93
2022/05/09 00:05:26;;;;;;;1999.90;999.90;;;14.80;99.90;;;;;;4959389;28;20031;-90
2022/05/09 00:07:52;;;;;;;1999.90;999.90;;;14.80;99.90;;;;;;4968126;28;20081;-93
2022/05/09 00:10:20;;;;;;;1999.90;999.90;;;14.70;99.90;;;;;;4963008;28;20024;-94
2022/05/09 00:12:46;;;;;;;1999.90;999.90;;;14.70;99.90;;;;;;4958075;28;20119;-93
2022/05/09 00:15:13;;;;;;;1999.90;999.90;;;14.60;99.90;;;;;;4967005;28;20103;-93
2022/05/09 00:17:39;;;;;;;1999.90;999.90;;;14.60;99.90;;;;;;4959720;28;20027;-94
2022/05/09 00:20:06;;;;;;;1999.90;999.90;;;14.60;99.90;;;;;;4959191;28;20119;-94
2022/05/09 00:22:41;;;;;;;1999.90;999.90;;;14.60;99.90;;;;;;4963081;28;20034;-90
2022/05/09 00:25:07;;;;;;;1999.90;999.90;;;14.50;99.90;;;;;;4968200;28;20049;-94
2022/05/09 00:27:33;;;;;;;1999.90;999.90;;;14.60;99.90;;;;;;4965761;28;20491;-93
2022/05/09 00:29:58;;;;;;;1999.90;999.90;;;14.50;99.90;;;;;;4971773;28;20093;-91
2022/05/09 00:32:24;;;;;;;1999.90;999.90;;;14.60;99.90;;;;;;4962985;28;20519;-93
2022/05/09 00:34:49;;;;;;;1999.90;999.90;;;14.60;99.90;;;;;;4962399;28;20027;-91
2022/05/09 00:37:15;;;;;;;1999.90;999.90;;;14.50;99.90;;;;;;4961304;28;20090;-90
2022/05/09 00:39:41;;;;;;;1999.90;999.90;;;14.50;99.90;;;;;;4971804;28;20030;-94
2022/05/09 00:42:12;;;;;;;1999.90;999.90;;;14.50;99.90;;;;;;4962772;28;20085;-93
2022/05/09 00:44:38;;;;;;;1999.90;999.90;;;14.40;99.90;;;;;;4972713;28;20023;-93
2022/05/09 00:47:04;;;;;;;1999.90;999.90;;;14.40;99.90;;;;;;4970519;28;20043;-91
2022/05/09 00:49:45;;;;;;;1999.90;999.90;;;14.40;99.90;;;;;;4962021;28;20030;-91
2022/05/09 00:52:16;;;;;;;1999.90;999.90;;;14.30;99.90;;;;;;4967453;28;20097;-93
2022/05/09 00:54:56;;;;;;;1999.90;999.90;;;14.30;99.90;;;;;;4962636;28;20038;-93
2022/05/09 00:57:44;;;;;;;1999.90;999.90;;;14.30;99.90;;;;;;4958505;28;20039;-90
2022/05/09 01:00:15;;;;;;;1999.90;999.90;;;14.30;99.90;;;;;;4953769;28;20039;-90
2022/05/09 01:02:48;;;;;;;1999.90;999.90;;;14.40;99.90;;;;;;4961000;28;20501;-94
2022/05/09 01:05:15;;;;;;;;;;;14.30;99.90;;;;;;4967587;28;20509;-93
2022/05/09 01:07:42;;;;;;;1999.90;999.90;;;14.30;99.90;;;;;;4960462;28;19913;-93
2022/05/09 01:10:14;;;;;;;1999.90;999.90;;;14.20;99.90;;;;;;4960915;28;20042;-94
2022/05/09 01:12:42;;;;;;;1999.90;999.90;;;14.20;99.90;;;;;;4965926;28;20022;-93
2022/05/09 01:15:12;;;;;;;1999.90;999.90;;;14.20;99.90;;;;;;4962947;28;20028;-94
2022/05/09 01:17:39;;;;;;;1999.90;999.90;;;14.20;99.90;;;;;;4961457;28;20074;-93
2022/05/09 01:20:10;;;;;;;1999.90;999.90;;;14.20;99.90;;;;;;4962309;28;20494;-91
2022/05/09 01:22:38;;;;;;;1999.90;999.90;;;14.30;99.90;;;;;;4962202;28;20046;-93
2022/05/09 01:25:06;;;;;;;1999.90;999.90;;;14.30;99.90;;;;;;4961620;28;20077;-91
2022/05/09 01:27:40;;;;;;;1999.90;999.90;;;14.30;99.90;;;;;;4959675;28;20094;-93
2022/05/09 01:30:28;;;;;;;1999.90;999.90;;;14.30;99.90;;;;;;4959256;28;20031;-93
2022/05/09 01:33:33;;;;;;;1999.90;999.90;;;14.30;99.90;;;;;;4963583;28;20030;-90
2022/05/09 01:36:08;;;;;;;1999.90;999.90;;;14.30;99.90;;;;;;4950769;28;20573;-93
2022/05/09 01:38:43;;;;;;;1999.90;999.90;;;14.30;99.90;;;;;;4971329;28;20034;-91
2022/05/09 01:41:09;;;;;;;1999.90;999.90;;;14.30;99.90;;;;;;4970748;28;20035;-93
2022/05/09 01:43:36;;;;;;;1999.90;999.90;;;14.30;99.90;;;;;;4969736;28;20023;-92
2022/05/09 01:46:04;;;;;;;1999.90;999.90;;;14.30;99.90;;;;;;4960327;28;20577;-91
2022/05/09 01:51:14;;;;;;;1999.90;999.90;;;14.20;99.90;;;;;;4956678;28;20549;-91
2022/05/09 01:53:40;;;;;;;1999.90;999.90;;;14.10;99.90;;;;;;4966935;28;20023;-93
2022/05/09 01:56:06;;;;;;;1999.90;999.90;;;14.00;99.90;;;;;;4962325;28;20098;-94
2022/05/09 01:58:31;;;;;;;1999.90;999.90;;;14.00;99.90;;;;;;4963923;28;20034;-90
2022/05/09 02:00:57;;;;;;;1999.90;999.90;;;14.00;99.90;;;;;;4955433;29;20081;-93
2022/05/09 02:03:23;;;;;;;1999.90;999.90;;;13.90;99.90;;;;;;4964021;28;20044;-91
2022/05/09 02:05:49;;;;;;;1999.90;999.90;;;13.90;99.90;;;;;;4964481;28;20041;-93
2022/05/09 02:08:15;;;;;;;1999.90;999.90;;;13.90;99.90;;;;;;4968912;28;20031;-93
2022/05/09 02:10:41;;;;;;;1999.90;999.90;;;13.90;99.90;;;;;;4971488;28;20105;-93
2022/05/09 02:13:07;;;;;;;1999.90;999.90;;;13.90;99.90;;;;;;4968528;28;20110;-92
2022/05/09 02:15:33;;;;;;;1999.90;999.90;;;13.90;99.90;;;;;;4958641;28;20055;-91
2022/05/09 02:17:59;;;;;;;1999.90;999.90;;;13.90;99.90;;;;;;4961135;28;20081;-93
2022/05/09 02:20:25;;;;;;;1999.90;999.90;;;13.80;99.90;;;;;;4971679;28;20031;-93
2022/05/09 02:22:51;;;;;;;1999.90;999.90;;;13.80;99.90;;;;;;4968750;28;20059;-93
2022/05/09 02:25:31;;;;;;;1999.90;999.90;;;13.80;99.90;;;;;;4972022;28;20077;-91
2022/05/09 02:28:02;;;;;;;1999.90;999.90;;;13.80;99.90;;;;;;4970081;28;20027;-91
2022/05/09 02:30:29;;;;;;;1999.90;999.90;;;13.70;99.90;;;;;;4971604;28;20035;-91
2022/05/09 02:32:55;;;;;;;1999.90;999.90;;;13.70;99.90;;;;;;4969847;28;20109;-93
2022/05/09 02:35:22;;;;;;;1999.90;999.90;;;13.70;99.90;;;;;;4964968;28;20035;-91
2022/05/09 02:37:49;;;;;;;1999.90;999.90;;;13.60;99.90;;;;;;4961537;28;20485;-90
2022/05/09 02:40:17;;;;;;;1999.90;999.90;;;13.60;99.90;;;;;;4963179;28;20039;-91
2022/05/09 02:42:43;;;;;;;1999.90;999.90;;;13.60;99.90;;;;;;4962934;28;20034;-91
2022/05/09 02:45:09;;;;;;;1999.90;999.90;;;13.50;99.90;;;;;;4973526;28;20039;-93
2022/05/09 02:47:35;;;;;;;1999.90;999.90;;;13.50;99.90;;;;;;4964439;28;20035;-91
2022/05/09 02:50:01;;;;;;;1999.90;999.90;;;13.50;99.90;;;;;;4972352;28;20077;-91
2022/05/09 02:52:27;;;;;;;1999.90;999.90;;;13.40;99.90;;;;;;4965822;28;20050;-93
2022/05/09 02:54:53;;;;;;;1999.90;999.90;;;13.40;99.90;;;;;;4971376;28;20035;-91
2022/05/09 02:57:18;;;;;;;1999.90;999.90;;;13.30;99.90;;;;;;4968984;28;20027;-91
2022/05/09 02:59:44;;;;;;;1999.90;999.90;;;13.30;99.90;;;;;;4953550;28;20054;-93
2022/05/09 03:02:10;;;;;;;1999.90;999.90;;;13.30;99.90;;;;;;4958817;28;20035;-91
2022/05/09 03:04:39;;;;;;;1999.90;999.90;;;13.30;99.90;;;;;;4958834;28;20034;-93
2022/05/09 03:07:07;;;;;;;1999.90;999.90;;;13.30;99.90;;;;;;4968998;28;20490;-93
2022/05/09 03:09:33;;;;;;;1999.90;999.90;;;13.30;99.90;;;;;;4968463;28;20030;-91
2022/05/09 03:11:59;;;;;;;1999.90;999.90;;;13.20;99.90;;;;;;4958326;28;20035;-93
2022/05/09 03:14:25;;;;;;;1999.90;999.90;;;13.20;99.90;;;;;;4964216;28;20047;-91
2022/05/09 03:16:50;;;;;;;1999.90;999.90;;;13.20;99.90;;;;;;4967550;28;20027;-93
2022/05/09 03:19:16;;;;;;;1999.90;999.90;;;13.10;99.90;;;;;;4959081;28;20122;-93
2022/05/09 03:21:42;;;;;;;1999.90;999.90;;;13.00;99.90;;;;;;4960530;28;20038;-93
2022/05/09 03:24:08;;;;;;;1999.90;999.90;;;13.00;99.90;;;;;;4960045;28;20126;-93
2022/05/09 03:26:34;;;;;;;1999.90;999.90;;;12.90;99.90;;;;;;4953907;28;20032;-91
2022/05/09 03:29:00;;;;;;;1999.90;999.90;;;12.90;99.90;;;;;;4958063;28;20031;-93
2022/05/09 03:31:26;;;;;;;1999.90;999.90;;;12.80;99.90;;;;;;4959111;28;20031;-92
2022/05/09 03:33:51;;;;;;;1999.90;999.90;;;12.90;99.90;;;;;;4954005;28;20027;-91
2022/05/09 03:36:17;;;;;;;1999.90;999.90;;;12.80;99.90;;;;;;4959260;28;20023;-91
2022/05/09 03:38:43;;;;;;;1999.90;999.90;;;12.80;99.90;;;;;;4964012;28;20026;-91
2022/05/09 03:41:08;;;;;;;1999.90;999.90;;;12.80;99.90;;;;;;4968213;28;20031;-91
2022/05/09 03:43:34;;;;;;;1999.90;999.90;;;12.80;99.90;;;;;;4963946;28;20406;-93
2022/05/09 03:46:00;;;;;;;1999.90;999.90;;;12.70;99.90;;;;;;4947810;28;20042;-91
2022/05/09 03:48:27;;;;;;;1999.90;999.90;;;12.70;99.90;;;;;;4965108;28;20066;-93
2022/05/09 03:50:56;;;;;;;1999.90;999.90;;;12.70;99.90;;;;;;4967200;28;20023;-93
2022/05/09 03:53:23;;;;;;;1999.90;999.90;;;12.70;99.90;;;;;;4963597;28;20042;-92
2022/05/09 03:55:49;;;;;;;1999.90;999.90;;;12.70;99.90;;;;;;4963017;28;20023;-92
2022/05/09 03:58:15;;;;;;;1999.90;999.90;;;12.70;99.90;;;;;;4963212;28;20465;-92
2022/05/09 04:00:41;;;;;;;1999.90;999.90;;;12.70;99.90;;;;;;4966522;28;20467;-91
2022/05/09 04:03:07;;;;;;;1999.90;999.90;;;12.70;99.90;;;;;;4958468;28;20496;-93
2022/05/09 04:05:35;;;;;;;1999.90;999.90;;;12.70;99.90;;;;;;4959152;28;20031;-91
2022/05/09 04:08:04;;;;;;;1999.90;999.90;;;12.70;99.90;;;;;;4959721;28;20027;-93
2022/05/09 04:10:32;;;;;;;1999.90;999.90;;;12.60;99.90;;;;;;4962777;28;20478;-91
2022/05/09 04:12:59;;;;;;;1999.90;999.90;;;12.60;99.90;;;;;;4966575;28;20035;-92
2022/05/09 04:18:10;;;;;;;1999.90;999.90;;;12.60;99.90;;;;;;4967469;28;20050;-91
2022/05/09 04:20:37;;;;;;;1999.90;999.90;;;12.50;99.90;;;;;;4963631;28;20487;-93
2022/05/09 04:23:03;;;;;;;1999.90;999.90;;;12.50;99.90;;;;;;4966939;28;20043;-93
2022/05/09 04:25:32;;;;;;;1999.90;999.90;;;12.50;99.90;;;;;;4960873;28;20110;-93
2022/05/09 04:27:59;;;;;;;1999.90;999.90;;;12.40;99.90;;;;;;4959682;28;20058;-92
2022/05/09 04:30:25;;;;;;;1999.90;999.90;;;12.40;99.90;;;;;;4957451;28;20023;-90
2022/05/09 04:32:51;;;;;;;1999.90;999.90;;;12.40;99.90;;;;;;4961685;28;20417;-92
2022/05/09 04:35:21;;;;;;;1999.90;999.90;;;12.30;99.90;;;;;;4956987;28;20031;-91
2022/05/09 04:37:49;;;;;;;1999.90;999.90;;;12.40;99.90;;;;;;4962142;28;20023;-92
2022/05/09 04:40:24;;;;;;;1999.90;999.90;;;12.30;99.90;;;;;;4968600;28;20397;-93
2022/05/09 04:42:51;;;;;;;1999.90;999.90;;;12.30;99.90;;;;;;4966985;28;20031;-93
2022/05/09 04:45:17;;;;;;;1999.90;999.90;;;12.30;99.90;;;;;;4966963;28;20031;-93
2022/05/09 04:47:45;;;;;;;1999.90;999.90;;;12.40;99.90;;;;;;4966157;28;20034;-93
2022/05/09 04:50:14;;;;;;;1999.90;999.90;;;12.40;99.90;;;;;;4968371;28;20034;-91
2022/05/09 04:52:40;;;;;;;1999.90;999.90;;;12.40;99.90;;;;;;4958765;28;20502;-91
2022/05/09 04:55:06;;;;;;;1999.90;999.90;;;12.40;99.90;;;;;;4966018;28;20097;-93
2022/05/09 04:57:33;;;;;;;1999.90;999.90;;;12.50;99.90;;;;;;4957492;28;20027;-93
2022/05/09 05:00:01;;;;;;;1999.90;999.90;;;12.60;99.90;;;;;;4958675;28;20062;-92
2022/05/09 05:02:27;;;;;;;1999.90;999.90;;;12.60;99.90;;;;;;4959112;28;20085;-92
2022/05/09 05:04:52;;;;;;;1999.90;999.90;;;12.60;99.90;;;;;;4966312;28;20444;-92
2022/05/09 05:07:18;;;;;;;1999.90;999.90;;;12.60;99.90;;;;;;4968252;28;20053;-91
2022/05/09 05:09:44;;;;;;;1999.90;999.90;;;12.60;99.90;;;;;;4966426;28;20402;-91
2022/05/09 05:12:10;;;;;;;1999.90;999.90;;;12.70;99.90;;;;;;4956976;28;20448;-93
2022/05/09 05:14:35;;;;;;;1999.90;999.90;;;12.60;99.90;;;;;;4957407;28;20034;-91
2022/05/09 05:17:01;;;;;;;1999.90;999.90;;;12.70;99.90;;;;;;4968900;28;20024;-93
2022/05/09 05:19:33;;;;;;;1999.90;999.90;;;12.70;99.90;;;;;;4964462;28;20027;-93
2022/05/09 05:22:01;;;;;;;1999.90;999.90;;;12.70;99.90;;;;;;4948598;28;20049;-94
2022/05/09 05:24:27;;;;;;;1999.90;999.90;;;12.80;99.90;;;;;;4964619;28;20035;-93
2022/05/09 05:26:54;;;;;;;1999.90;999.90;;;12.80;99.90;;;;;;4964838;28;20038;-91
2022/05/09 05:29:21;;;;;;;1999.90;999.90;;;12.80;99.90;;;;;;4960934;28;20129;-94
2022/05/09 05:31:47;;;;;;;1999.90;999.90;;;12.90;99.90;;;;;;4952885;28;20027;-94
2022/05/09 05:34:13;;;;;;;1999.90;999.90;;;13.00;99.90;;;;;;4966648;28;20037;-91
2022/05/09 05:36:38;;;;;;;1999.90;999.90;;;13.10;99.90;;;;;;4957966;28;20106;-94
2022/05/09 05:39:04;;;;;;;1999.90;999.90;;;13.10;99.90;;;;;;4961218;28;20124;-95
2022/05/09 05:41:33;;;;;;;1999.90;999.90;;;13.20;99.90;;;;;;4958281;28;20027;-93
2022/05/09 05:43:59;;;;;;;1999.90;999.90;;;13.20;99.90;;;;;;4966057;28;20035;-94
2022/05/09 05:46:25;;;;;;;1999.90;999.90;;;13.30;99.90;;;;;;4973794;28;20025;-94
2022/05/09 05:48:51;;;;;;;1999.90;999.90;;;13.30;99.90;;;;;;4959806;28;20069;-93
2022/05/09 05:51:18;;;;;;;1999.90;999.90;;;13.40;99.90;;;;;;4961950;28;20018;-94
2022/05/09 05:53:45;;;;;;;1999.90;999.90;;;13.40;99.90;;;;;;4959943;28;20031;-94
2022/05/09 05:56:11;;;;;;;1999.90;999.90;;;13.50;99.90;;;;;;4961507;28;20037;-94
2022/05/09 05:58:37;;;;;;;1999.90;999.90;;;13.60;99.90;;;;;;4969550;28;20038;-94
2022/05/09 06:01:03;;;;;;;1999.90;999.90;;;13.70;99.90;;;;;;4965421;28;20028;-94
2022/05/09 06:03:29;;;;;;;1999.90;999.90;;;13.70;99.90;;;;;;4964841;28;20030;-94
2022/05/09 06:05:54;;;;;;;1999.90;999.90;;;13.90;99.90;;;;;;4964981;28;20061;-95
2022/05/09 06:08:20;;;;;;;1999.90;999.90;;;14.10;99.90;;;;;;4965869;28;20030;-95
2022/05/09 06:10:47;;;;;;;1999.90;999.90;;;14.20;99.90;;;;;;4962672;28;20031;-94
2022/05/09 06:13:13;;;;;;;1999.90;999.90;;;14.40;99.90;;;;;;4968595;28;20138;-94
2022/05/09 06:15:41;;;;;;;1999.90;999.90;;;14.60;99.90;;;;;;4959029;28;20404;-90
2022/05/09 06:18:11;;;;;;;1999.90;999.90;;;14.80;99.90;;;;;;4973480;28;20099;-93
2022/05/09 06:20:39;;;;;;;1999.90;999.90;;;14.80;99.90;;;;;;4982934;28;20028;-92
2022/05/09 06:23:05;;;;;;;1999.90;999.90;;;14.90;99.90;;;;;;4972862;28;20537;-93
2022/05/09 06:25:34;;;;;;;1999.90;999.90;;;15.10;99.90;;;;;;4963516;28;20027;-94
2022/05/09 06:28:00;;;;;;;1999.90;999.90;;;15.20;99.90;;;;;;4967893;28;20038;-95
2022/05/09 06:30:27;;;;;;;1999.90;999.90;;;15.30;99.90;;;;;;4968562;28;20133;-95
2022/05/09 06:32:54;;;;;;;1999.90;999.90;;;15.40;99.90;;;;;;4957309;28;20046;-95
2022/05/09 06:35:26;;;;;;;1999.90;999.90;;;15.40;99.90;;;;;;4953338;29;20518;-92
2022/05/09 06:37:55;;;;;;;1999.90;999.90;;;15.60;99.90;;;;;;4951891;29;20023;-94
2022/05/09 06:40:21;;;;;;;1999.90;999.90;;;15.70;99.90;;;;;;4955601;29;20027;-91
2022/05/09 06:42:50;;;;;;;1999.90;999.90;;;15.80;99.90;;;;;;4965233;28;20078;-92
2022/05/09 06:45:17;;;;;;;1999.90;999.90;;;16.00;99.90;;;;;;4959239;28;20031;-92
2022/05/09 06:47:48;;;;;;;1999.90;999.90;;;16.00;99.90;;;;;;4954283;29;20035;-92
2022/05/09 06:50:14;;;;;;;1999.90;999.90;;;16.20;99.90;;;;;;4954053;28;20031;-92
2022/05/09 06:52:41;;;;;;;1999.90;999.90;;;16.30;99.90;;;;;;4954382;29;20101;-93
2022/05/09 06:55:08;;;;;;;1999.90;999.90;;;16.40;99.90;;;;;;4958936;28;20035;-93
2022/05/09 06:57:39;;;;;;;1999.90;999.90;;;16.50;99.90;;;;;;4962901;28;20031;-93
2022/05/09 07:00:07;;;;;;;1999.90;999.90;;;16.60;99.90;;;;;;4953624;28;20035;-92
2022/05/09 07:02:33;;;;;;;1999.90;999.90;;;16.80;99.90;;;;;;4953229;28;20035;-92
2022/05/09 07:04:59;;;;;;;1999.90;999.90;;;16.90;99.90;;;;;;4953702;29;20093;-93
2022/05/09 07:07:24;;;;;;;1999.90;999.90;;;17.10;99.90;;;;;;4955145;28;20083;-93
2022/05/09 07:09:50;;;;;;;1999.90;999.90;;;17.20;99.90;;;;;;4951780;28;20035;-93
2022/05/09 07:12:16;;;;;;;1999.90;999.90;;;17.30;99.90;;;;;;4963613;28;20452;-94
2022/05/09 07:14:41;;;;;;;1999.90;999.90;;;17.40;99.90;;;;;;4953134;28;20079;-95
2022/05/09 07:17:07;;;;;;;1999.90;999.90;;;17.50;99.90;;;;;;4972518;28;20126;-95
2022/05/09 07:19:33;;;;;;;1999.90;999.90;;;17.70;99.90;;;;;;4954694;29;20030;-96
2022/05/09 07:21:58;;;;;;;1999.90;999.90;;;17.70;99.90;;;;;;4961128;28;20084;-95
2022/05/09 07:24:24;;;;;;;1999.90;999.90;;;17.90;99.90;;;;;;4958977;29;20027;-95
2022/05/09 07:26:50;;;;;;;1999.90;999.90;;;18.00;99.90;;;;;;4962070;29;20049;-96
2022/05/09 07:29:18;;;;;;;1999.90;999.90;;;18.30;99.90;;;;;;4965982;29;20042;-94
2022/05/09 07:31:44;;;;;;;1999.90;999.90;;;18.50;99.90;;;;;;4969047;29;20031;-95
2022/05/09 07:34:10;;;;;;;1999.90;999.90;;;18.70;99.90;;;;;;4972581;28;20490;-95
2022/05/09 07:36:35;;;;;;;1999.90;999.90;;;18.80;99.90;;;;;;4960521;29;20055;-95
2022/05/09 07:39:02;;;;;;;1999.90;999.90;;;19.10;99.90;;;;;;4960288;28;20046;-94
2022/05/09 07:41:28;;;;;;;1999.90;999.90;;;19.20;99.90;;;;;;4957024;29;20055;-95
2022/05/09 07:43:54;;;;;;;1999.90;999.90;;;19.90;99.90;;;;;;4962073;28;20078;-95
2022/05/09 07:46:19;;;;;;;1999.90;999.90;;;22.10;99.90;;;;;;4962271;28;20039;-94
2022/05/09 07:48:46;;;;;;;1999.90;999.90;;;24.80;98.40;;;;;;4964169;28;20063;-93
2022/05/09 07:51:14;;;;;;;1999.90;999.90;;;26.30;95.70;;;;;;4960561;28;20394;-95
2022/05/09 07:53:40;;;;;;;1999.90;999.90;;;27.70;94.00;;;;;;4959618;28;20118;-93
2022/05/09 07:56:06;;;;;;;1999.90;999.90;;;28.40;92.70;;;;;;4959959;28;20023;-94
2022/05/09 07:58:33;;;;;;;1999.90;999.90;;;29.10;91.70;;;;;;4969157;28;20050;-96
2022/05/09 08:01:00;;;;;;;1999.90;999.90;;;29.30;90.90;;;;;;4958498;29;20038;-94
2022/05/09 08:03:29;;;;;;;1999.90;999.90;;;29.70;90.60;;;;;;4967333;28;20027;-96
2022/05/09 08:05:56;;;;;;;1999.90;999.90;;;30.40;89.40;;;;;;4952152;28;20070;-94
2022/05/09 08:08:22;;;;;;;1999.90;999.90;;;30.90;88.00;;;;;;4961478;28;20019;-96
2022/05/09 08:10:48;;;;;;;1999.90;999.90;;;31.20;87.50;;;;;;4964286;28;20049;-96
2022/05/09 08:13:16;;;;;;;1999.90;999.90;;;31.50;86.90;;;;;;4973901;28;20138;-96
2022/05/09 08:15:45;;;;;;;1999.90;999.90;;;31.70;86.40;;;;;;4967672;28;20040;-96
2022/05/09 08:18:13;;;;;;;1999.90;999.90;;;31.90;85.30;;;;;;4957973;28;20095;-95
2022/05/09 08:20:42;;;;;;;1999.90;999.90;;;32.40;84.80;;;;;;4976535;28;20019;-93
2022/05/09 08:23:11;;;;;;;1999.90;999.90;;;32.70;83.50;;;;;;4974311;28;20034;-92
2022/05/09 08:25:39;;;;;;;1999.90;999.90;;;33.00;83.40;;;;;;4965306;28;20462;-94
2022/05/09 08:28:07;;;;;;;1999.90;999.90;;;33.10;82.80;;;;;;4959701;29;20535;-94
2022/05/09 08:30:34;;;;;;;1999.90;999.90;;;33.40;81.80;;;;;;4962277;28;20027;-94
2022/05/09 08:33:04;;;;;;;1999.90;999.90;;;33.80;81.30;;;;;;4965386;28;20050;-95
2022/05/09 08:35:31;;;;;;;1999.90;999.90;;;34.00;80.70;;;;;;4961111;28;20031;-96
2022/05/09 08:37:57;;;;;;;1999.90;999.90;;;34.00;79.80;;;;;;4959911;28;20538;-96
2022/05/09 08:40:53;;;;;;;1999.90;999.90;;;34.30;79.90;;;;;;4961470;28;20079;-95
2022/05/09 08:43:45;;;;;;;1999.90;999.90;;;34.50;78.60;;;;;;4956383;28;20422;-96
2022/05/09 08:46:21;;;;;;;1999.90;999.90;;;34.50;78.60;;;;;;4942023;29;20058;-94
2022/05/09 08:49:04;;;;;;;1999.90;999.90;;;34.80;77.50;;;;;;4958813;28;20057;-96
2022/05/09 08:51:41;;;;;;;1999.90;999.90;;;34.80;77.70;;;;;;4962614;28;20051;-95
2022/05/09 08:54:10;;;;;;;1999.90;999.90;;;34.40;76.80;;;;;;4957260;28;20042;-94
2022/05/09 08:56:36;;;;;;;1999.90;999.90;;;34.80;77.20;;;;;;4966800;28;20562;-96
2022/05/09 08:59:11;;;;;;;1999.90;999.90;;;35.00;76.50;;;;;;4950196;28;20193;-95
2022/05/09 09:01:45;;;;;;;1999.90;999.90;;;35.50;77.00;;;;;;4966350;28;20030;-95
2022/05/09 09:04:29;;;;;;;1999.90;999.90;;;35.40;76.90;;;;;;4972787;28;20034;-95
2022/05/09 09:07:07;;;;;;;1999.90;999.90;;;35.50;76.20;;;;;;4961845;28;20838;-95
2022/05/09 09:09:59;;;;;;;1999.90;999.90;;;35.40;76.10;;;;;;4958720;28;20039;-95
2022/05/09 09:12:49;;;;;;;1999.90;999.90;;;35.80;75.70;;;;;;4958577;28;20028;-94
2022/05/09 09:15:26;;;;;;;1999.90;999.90;;;35.70;75.20;;;;;;4962854;29;20402;-94
2022/05/09 09:18:10;;;;;;;1999.90;999.90;;;35.90;75.00;;;;;;4961399;28;20031;-95
2022/05/09 09:20:54;;;;;;;1999.90;999.90;;;36.10;74.30;;;;;;4960919;28;20034;-94
2022/05/09 09:24:04;;;;;;;1999.90;999.90;;;36.30;74.30;;;;;;4945428;29;20040;-96
2022/05/09 09:27:00;;;;;;;1999.90;999.90;;;36.00;74.20;;;;;;4952652;28;20023;-93
2022/05/09 09:29:57;;;;;;;1999.90;999.90;;;36.20;73.90;;;;;;4962254;28;20035;-93
2022/05/09 09:32:23;;;;;;;1999.90;999.90;;;36.10;73.10;;;;;;4950594;28;20418;-92
2022/05/09 09:35:08;;;;;;;1999.90;999.90;;;36.00;73.00;;;;;;4962880;28;20055;-93
2022/05/09 09:37:48;;;;;;;1999.90;999.90;;;36.10;73.30;;;;;;4960995;28;20023;-94
2022/05/09 09:40:13;;;;;;;1999.90;999.90;;;36.00;73.00;;;;;;4963591;28;20073;-94
2022/05/09 09:42:39;;;;;;;1999.90;999.90;;;36.20;72.90;;;;;;4963757;28;20111;-93
2022/05/09 09:45:40;;;;;;;1999.90;999.90;;;36.40;73.00;;;;;;4962988;29;20132;-94
2022/05/09 09:48:21;;;;;;;1999.90;999.90;;;36.20;72.20;;;;;;4913733;29;20050;-92
2022/05/09 09:51:08;;;;;;;1999.90;999.90;;;36.50;71.70;;;;;;4961949;29;20038;-93
2022/05/09 09:53:52;;;;;;;1999.90;999.90;;;36.30;70.50;;;;;;4964338;29;20035;-94
2022/05/09 09:56:21;;;;;;;1999.90;999.90;;;36.20;70.30;;;;;;4964975;28;20066;-94
2022/05/09 09:58:48;;;;;;;1999.90;999.90;;;36.40;71.10;;;;;;4964544;28;20086;-95
2022/05/09 10:01:39;;;;;;;1999.90;999.90;;;35.90;69.70;;;;;;4961098;28;20383;-95
2022/05/09 10:04:14;;;;;;;1999.90;999.90;;;36.30;69.70;;;;;;4951088;28;20031;-94
2022/05/09 10:06:55;;;;;;;1999.90;999.90;;;36.30;68.20;;;;;;4959382;28;20035;-95
2022/05/09 10:09:22;;;;;;;1999.90;999.90;;;36.40;67.50;;;;;;4962548;29;20027;-95
2022/05/09 10:11:48;;;;;;;1999.90;999.90;;;35.70;68.60;;;;;;4961704;28;20059;-94
2022/05/09 10:14:31;;;;;;;1999.90;999.90;;;35.90;69.10;;;;;;4954663;28;20022;-96
2022/05/09 10:17:32;;;;;;;1999.90;999.90;;;36.10;67.00;;;;;;4967763;29;20038;-95
2022/05/09 10:20:00;;;;;;;1999.90;999.90;;;36.00;66.00;;;;;;4973107;28;20047;-93
2022/05/09 10:25:17;;;;;;;1999.90;999.90;;;36.00;67.70;;;;;;4959989;28;20170;-94
2022/05/09 10:27:44;;;;;;;1999.90;999.90;;;35.70;67.20;;;;;;4964216;29;20034;-95
2022/05/09 10:30:24;;;;;;;1999.90;999.90;;;35.10;68.30;;;;;;4965338;28;20063;-96
2022/05/09 10:33:02;;;;;;;1999.90;999.90;;;34.90;65.40;;;;;;4959573;28;20061;-96
2022/05/09 10:35:40;;;;;;;1999.90;999.90;;;35.00;67.50;;;;;;4964926;28;20519;-96
2022/05/09 10:38:12;;;;;;;1999.90;999.90;;;35.20;68.80;;;;;;4960716;28;20042;-96
2022/05/09 10:40:46;;;;;;;1999.90;999.90;;;35.20;69.90;;;;;;4952841;28;20123;-96
2022/05/09 10:43:29;;;;;;;1999.90;999.90;;;35.10;69.80;;;;;;4956846;28;20067;-92
2022/05/09 10:45:56;;;;;;;1999.90;999.90;;;35.30;66.60;;;;;;4981844;28;20097;-96
2022/05/09 10:48:21;;;;;;;1999.90;999.90;;;35.20;67.40;;;;;;4964261;28;20130;-96
2022/05/09 10:51:14;;;;;;;1999.90;999.90;;;35.00;65.90;;;;;;4961611;29;20059;-96
2022/05/09 10:53:46;;;;;;;1999.90;999.90;;;34.70;66.50;;;;;;4978520;28;20026;-96
2022/05/09 10:56:21;;;;;;;;;;;34.80;66.10;;;;;;4973110;29;20463;-96
2022/05/09 10:59:12;;;;;;;1999.90;999.90;;;34.20;66.00;;;;;;4969411;28;19928;-95
2022/05/09 11:02:07;;;;;;;1999.90;999.90;;;34.00;66.20;;;;;;4973658;28;20046;-96
2022/05/09 11:04:36;;;;;;;1999.90;999.90;;;33.90;66.20;;;;;;4952716;28;20476;-93
2022/05/09 11:07:20;;;;;;;1999.90;999.90;;;33.00;66.70;;;;;;4969488;28;20033;-95
2022/05/09 11:09:45;;;;;;;1999.90;999.90;;;32.90;67.60;;;;;;4964759;28;20070;-96
2022/05/09 11:12:24;;;;;;;1999.90;999.90;;;33.30;66.20;;;;;;4965521;28;20027;-96
2022/05/09 11:15:05;;;;;;;1999.90;999.90;;;32.60;65.10;;;;;;4952153;28;20471;-95
2022/05/09 11:18:15;;;;;;;1999.90;999.90;;;32.50;65.90;;;;;;4965455;28;20027;-96
2022/05/09 11:20:46;;;;;;;1999.90;999.90;;;33.00;66.20;;;;;;4961904;28;20050;-96
2022/05/09 11:23:24;;;;;;;;;;;33.70;67.60;;;;;;4965023;28;20023;-96
2022/05/09 11:25:52;;;;;;;1999.90;999.90;;;34.30;65.80;;;;;;4972537;28;19906;-95
2022/05/09 11:29:04;;;;;;;1999.90;999.90;;;34.10;65.70;;;;;;4975090;28;20483;-96
2022/05/09 11:31:48;;;;;;;1999.90;999.90;;;33.50;65.90;;;;;;4946598;29;20135;-95
2022/05/09 11:34:31;;;;;;;1999.90;999.90;;;33.30;66.80;;;;;;4963014;28;20034;-96
2022/05/09 11:37:09;;;;;;;1999.90;999.90;;;33.60;65.90;;;;;;4970816;28;20090;-96
2022/05/09 11:40:08;;;;;;;1999.90;999.90;;;33.80;66.30;;;;;;4959650;28;20024;-93
2022/05/09 11:46:17;;;;;;;1999.90;999.90;;;32.90;67.90;;;;;;4945358;28;20090;-96
2022/05/09 11:49:06;;;;;;;1999.90;999.90;;;32.00;68.00;;;;;;4947387;29;20035;-96
2022/05/09 11:51:53;;;;;;;1999.90;999.90;;;31.50;68.30;;;;;;4955446;28;20047;-95
2022/05/09 11:54:41;;;;;;;1999.90;999.90;;;31.50;68.10;;;;;;4967532;23;20052;-74
2022/05/09 11:57:17;;;;;;;1999.90;999.90;;;31.50;69.40;;;;;;4930799;29;20027;-76
2022/05/09 11:59:55;;;;;;;1999.90;999.90;;;31.70;69.80;;;;;;4945535;28;20066;-76
2022/05/09 12:02:51;;;;;;;1999.90;999.90;;;31.90;67.80;;;;;;4935564;29;20031;-76
2022/05/09 12:05:32;;;;;;;1999.90;999.90;;;32.00;65.30;;;;;;4935895;29;20031;-82
2022/05/09 12:08:17;;;;;;;1999.90;999.90;;;31.40;66.20;;;;;;4930925;29;20107;-76
2022/05/09 12:10:49;;;;;;;1999.90;999.90;;;31.10;67.70;;;;;;4930825;29;20431;-76
2022/05/09 12:13:21;;;;;;;1999.90;999.90;;;31.60;67.30;;;;;;4927164;29;20027;-75
2022/05/09 12:15:58;;;;;;;1999.90;999.90;;;31.30;67.90;;;;;;4943751;28;20379;-76
2022/05/09 12:18:34;;;;;;;1999.90;999.90;;;31.40;68.10;;;;;;4930907;29;20106;-79
2022/05/09 12:21:13;;;;;;;1999.90;999.90;;;30.80;67.20;;;;;;4930643;29;20032;-74
2022/05/09 12:23:41;;;;;;;1999.90;999.90;;;29.50;68.40;;;;;;4929786;29;20040;-75
2022/05/09 12:26:09;;;;;;;1999.90;999.90;;;29.10;69.70;;;;;;4933455;29;20027;-80
2022/05/09 12:28:39;;;;;;;1999.90;999.90;;;29.90;71.50;;;;;;4933061;29;20036;-76
2022/05/09 12:31:29;;;;;;;1999.90;999.90;;;30.80;69.80;;;;;;4931952;29;20020;-81